Latest Weather Observations for Toowoomba

IDQ60801

Issued at 7:12 am EST Monday 28 September 2020 (issued every 10 minutes, with the page automatically refreshed every 10 minutes)

About weather observations | Map of weather stations | Latest weather observations for QLD | Other Formats
Station Details ID: 041529 Name: TOOWOOMBA AIRPORT Lat: -27.54 Lon: 151.91 Height: 640.9 m
Data from the previous 72 hours. | See also: Recent months at Toowoomba
Date/Time
EST
Temp
°C
App
Temp
°C
Dew
Point
°C
Rel
Hum
%
Delta-T
°C
Wind Press
QNH
hPa
Press
MSL
hPa
Rain since
9am
mm
Dir  Spd
km/h
Gust
km/h
Spd
kts
Gust
kts
28/07:00am 12.2 7.4 5.8 65 3.1 E 20 26 11 14 1025.7 1023.9 0.0
28/06:30am 10.7 5.9 5.5 70 2.5 ESE 20 24 11 13 1025.5 1023.7 0.0
28/06:00am 9.2 4.3 5.2 76 1.9 ESE 20 24 11 13 1025.1 1023.4 0.0
28/05:30am 8.6 3.6 4.8 77 1.8 ESE 20 24 11 13 1024.7 1023.0 0.0
28/05:00am 8.8 3.8 4.8 76 1.8 E 20 26 11 14 1024.3 1022.5 0.0
28/04:30am 8.7 3.7 4.5 75 1.9 E 20 26 11 14 1024.0 1022.2 0.0
28/04:00am 8.9 3.8 4.3 73 2.1 E 20 24 11 13 1023.9 1022.1 0.0
28/03:30am 8.7 3.6 3.9 72 2.2 E 20 24 11 13 1023.8 1022.0 0.0
28/03:00am 8.8 3.6 3.6 70 2.3 E 20 26 11 14 1023.7 1021.9 0.0
28/02:30am 9.3 4.1 3.5 67 2.6 E 20 26 11 14 1023.8 1022.0 0.0
28/02:00am 9.5 4.3 3.5 66 2.7 E 20 24 11 13 1024.0 1022.2 0.0
28/01:30am 9.9 4.7 3.6 65 2.9 E 20 24 11 13 1024.3 1022.5 0.0
28/01:00am 9.9 5.0 3.9 66 2.7 E 19 24 10 13 1024.6 1022.9 0.0
28/12:30am 9.9 5.3 3.6 65 2.9 E 17 20 9 11 1024.8 1023.1 0.0
28/12:00am 9.8 5.1 3.3 64 2.9 E 17 19 9 10 1025.0 1023.3 0.0
 
Date/Time
EST
Temp
°C
App
Temp
°C
Dew
Point
°C
Rel
Hum
%
Delta-T
°C
Wind Press
QNH
hPa
Press
MSL
hPa
Rain since
9am
mm
Dir  Spd
km/h
Gust
km/h
Spd
kts
Gust
kts
27/11:30pm 9.9 5.5 2.7 61 3.2 E 15 19 8 10 1025.1 1023.4 0.0
27/11:00pm 10.6 5.8 2.7 58 3.5 E 17 22 9 12 1025.3 1023.5 0.0
27/10:30pm 10.7 5.0 2.8 58 3.5 ESE 22 28 12 15 1025.4 1023.6 0.0
27/10:00pm 11.3 5.2 2.9 56 3.8 E 24 32 13 17 1025.1 1023.4 0.0
27/09:30pm 11.5 5.7 2.5 54 4.0 E 22 30 12 16 1024.9 1023.2 0.0
27/09:00pm 12.0 6.6 2.7 53 4.2 E 20 28 11 15 1024.7 1023.0 0.0
27/08:30pm 12.7 7.7 -0.9 39 5.7 ESE 15 24 8 13 1024.2 1022.4 0.0
27/08:00pm 12.9 8.3 -4.2 30 6.7 SW 11 17 6 9 1023.7 1021.9 0.0
27/07:30pm 13.8 9.8 -5.3 26 7.4 SSW 7 9 4 5 1023.4 1021.7 0.0
27/07:00pm 14.5 10.2 -5.3 25 7.7 SSW 9 13 5 7 1023.0 1021.3 0.0
27/06:30pm 14.4 10.0 -5.9 24 7.8 SW 9 13 5 7 1022.5 1020.7 0.0
27/06:00pm 15.6 10.9 -5.4 23 8.2 SW 11 15 6 8 1022.1 1020.3 0.0
27/05:30pm 17.3 11.4 -5.8 20 9.2 SW 17 22 9 12 1021.6 1019.9 0.0
27/05:00pm 18.1 11.7 -7.3 17 9.8 SW 19 24 10 13 1021.3 1019.5 0.0
27/04:30pm 18.8 12.4 -6.7 17 10.1 WSW 19 30 10 16 1021.1 1019.3 0.0
27/04:00pm 19.2 12.6 -7.2 16 10.3 SW 20 30 11 16 1020.9 1019.1 0.0
27/03:30pm 19.4 12.8 -7.0 16 10.4 SW 20 30 11 16 1020.9 1019.1 0.0
27/03:00pm 19.1 12.2 -6.5 17 10.2 WSW 22 32 12 17 1020.8 1019.0 0.0
27/02:30pm 19.3 12.5 -5.6 18 10.1 WSW 22 35 12 19 1020.8 1019.0 0.0
27/02:00pm 19.3 12.5 -5.6 18 10.1 SW 22 32 12 17 1021.0 1019.2 0.0
27/01:30pm 18.9 11.9 -6.7 17 10.1 WSW 22 35 12 19 1021.5 1019.7 0.0
27/01:00pm 18.9 11.7 -5.2 19 9.8 WSW 24 35 13 19 1022.0 1020.2 0.0
27/12:30pm 18.1 10.8 -5.9 19 9.6 WSW 24 33 13 18 1022.3 1020.5 0.0
27/12:00pm 17.8 11.4 -4.8 21 9.2 SW 20 35 11 19 1022.8 1021.0 0.0
27/11:30am 17.6 11.5 -4.3 22 9.0 SW 19 32 10 17 1023.1 1021.4 0.0
27/11:00am 17.2 10.8 -4.7 22 8.8 WSW 20 32 11 17 1023.6 1021.8 0.0
27/10:30am 15.5 9.1 -5.0 24 8.1 SW 20 28 11 15 1023.8 1022.0 0.0
27/10:00am 15.0 7.8 -5.4 24 7.9 SW 24 33 13 18 1024.1 1022.3 0.0
27/09:30am 14.5 7.7 -5.3 25 7.7 SSW 22 32 12 17 1024.2 1022.4 0.0
27/09:00am 14.1 6.9 -5.1 26 7.4 SW 24 35 13 19 1024.1 1022.3 0.0
27/08:30am 13.7 7.2 -5.9 25 7.5 SW 20 32 11 17 1023.9 1022.1 0.0
27/08:00am 13.0 6.6 -5.1 28 6.9 SW 20 30 11 16 1023.4 1021.7 0.0
27/07:30am 12.0 6.6 -4.6 31 6.4 SSW 15 20 8 11 1023.3 1021.6 0.0
27/07:00am 10.4 6.6 -3.6 37 5.4 S 7 11 4 6 1023.0 1021.3 0.0
27/06:30am 8.9 5.2 -4.3 39 4.9 S 6 9 3 5 1022.5 1020.7 0.0
27/06:00am 7.8 3.6 -4.3 42 4.4 S 9 13 5 7 1022.1 1020.3 0.0
27/05:30am 7.2 2.9 -4.8 42 4.3 SSW 9 11 5 6 1021.6 1019.9 0.0
27/05:00am 7.5 3.2 -5.2 40 4.5 S 9 15 5 8 1021.5 1019.7 0.0
27/04:30am 7.5 3.1 -5.5 39 4.6 S 9 11 5 6 1021.2 1019.4 0.0
27/04:00am 7.4 2.7 -5.3 40 4.5 SSW 11 15 6 8 1020.8 1019.0 0.0
27/03:30am 7.1 3.1 -5.2 41 4.4 SSW 7 11 4 6 1020.8 1019.0 0.0
27/03:00am 7.0 3.2 -5.3 41 4.4 SSW 6 7 3 4 1020.9 1019.1 0.0
27/02:30am 7.5 4.5 -5.5 39 4.6 SSW 2 6 1 3 1020.9 1019.1 0.0
27/02:00am 8.0 4.1 -5.1 39 4.7 SW 7 9 4 5 1021.2 1019.4 0.0
27/01:30am 7.9 3.6 -5.2 39 4.7 SW 9 11 5 6 1021.4 1019.6 0.0
27/01:00am 7.8 3.8 -5.6 38 4.8 SW 7 9 4 5 1021.6 1019.9 0.0
27/12:30am 8.5 4.2 -5.3 37 5.0 SW 9 11 5 6 1021.9 1020.1 0.0
27/12:00am 9.0 5.0 -5.6 35 5.3 SW 7 11 4 6 1022.0 1020.2 0.0
 
Date/Time
EST
Temp
°C
App
Temp
°C
Dew
Point
°C
Rel
Hum
%
Delta-T
°C
Wind Press
QNH
hPa
Press
MSL
hPa
Rain since
9am
mm
Dir  Spd
km/h
Gust
km/h
Spd
kts
Gust
kts
26/11:30pm 8.8 4.4 -5.8 35 5.3 SW 9 13 5 7 1021.9 1020.1 0.0
26/11:00pm 9.1 4.7 -5.5 35 5.3 SW 9 13 5 7 1022.0 1020.2 0.0
26/10:30pm 10.2 5.1 -5.3 33 5.7 WSW 13 22 7 12 1021.9 1020.1 0.0
26/10:00pm 9.6 4.4 -5.9 33 5.6 WSW 13 17 7 9 1022.0 1020.2 0.0
26/09:30pm 9.7 4.5 -6.2 32 5.7 WSW 13 19 7 10 1022.0 1020.2 0.0
26/09:00pm 10.0 4.4 -6.3 31 5.9 WSW 15 19 8 10 1021.6 1019.9 0.0
26/08:30pm 10.3 5.5 -6.5 30 6.1 WSW 11 17 6 9 1021.5 1019.7 0.0
26/08:00pm 10.7 5.5 -6.6 29 6.2 WSW 13 17 7 9 1021.2 1019.4 0.0
26/07:30pm 11.3 5.3 -6.5 28 6.5 WSW 17 20 9 11 1020.7 1018.9 0.0
26/07:00pm 12.2 6.2 -6.2 27 6.8 WSW 17 22 9 12 1020.0 1018.2 0.0
26/06:30pm 12.8 6.3 -6.2 26 7.1 WSW 20 26 11 14 1019.4 1017.6 0.0
26/06:00pm 13.6 6.3 -6.6 24 7.5 WSW 24 32 13 17 1018.8 1016.9 0.0
26/05:30pm 14.7 6.7 -6.2 23 8.0 WSW 28 37 15 20 1018.2 1016.4 0.0
26/05:00pm 15.6 7.5 -6.6 21 8.5 WSW 28 41 15 22 1017.6 1015.8 0.0
26/04:30pm 16.4 8.0 -6.0 21 8.8 WSW 30 39 16 21 1017.3 1015.4 0.0
26/04:00pm 16.6 7.8 -6.4 20 8.9 WSW 32 46 17 25 1017.1 1015.2 0.0
26/03:47pm 16.5 7.5 -5.9 21 8.8 WSW 33 52 18 28 1016.9 1015.0 0.0
26/03:30pm 17.1 8.3 -6.0 20 9.1 W 32 44 17 24 1016.7 1014.9 0.0
26/03:00pm 16.6 7.1 -7.1 19 9.1 WSW 35 52 19 28 1016.5 1014.7 0.0
26/02:31pm 17.5 8.1 -6.3 19 9.4 WSW 35 54 19 29 1016.6 1014.8 0.0
26/02:30pm 17.5 8.1 -6.3 19 9.4 WSW 35 50 19 27 1016.6 1014.8 0.0
26/02:17pm 17.2 7.7 -7.3 18 9.4 WSW 35 54 19 29 1016.9 1015.0 0.0
26/02:00pm 17.0 7.6 -6.1 20 9.1 WSW 35 50 19 27 1017.0 1015.1 0.0
26/01:30pm 16.7 7.0 -5.7 21 8.8 WSW 37 56 20 30 1017.2 1015.3 0.0
26/01:19pm 16.5 7.1 -6.5 20 8.9 WSW 35 54 19 29 1017.2 1015.3 0.0
26/01:00pm 17.4 8.6 -5.8 20 9.2 WSW 32 48 17 26 1017.1 1015.2 0.0
26/12:31pm 16.4 6.5 -7.9 18 9.1 W 37 59 20 32 1017.0 1015.1 0.0
26/12:30pm 16.5 7.0 -7.2 19 9.0 WSW 35 48 19 26 1017.3 1015.4 0.0
26/12:01pm 16.8 7.8 -6.3 20 9.0 WSW 33 52 18 28 1017.6 1015.8 0.0
26/12:00pm 16.4 7.0 -6.0 21 8.7 WSW 35 52 19 28 1017.5 1015.6 0.0
26/11:46am 16.2 6.7 -7.4 19 8.9 WSW 35 56 19 30 1017.4 1015.5 0.0
26/11:30am 15.4 5.5 -7.4 20 8.6 WSW 37 50 20 27 1017.6 1015.8 0.0
26/11:03am 15.1 5.5 -4.8 25 7.9 WSW 37 56 20 30 1017.7 1015.9 0.0
26/11:00am 15.0 5.1 -4.3 26 7.7 WSW 39 56 21 30 1017.9 1016.1 0.0
26/10:38am 14.5 5.2 -5.3 25 7.7 WSW 35 54 19 29 1017.9 1016.1 0.0
26/10:30am 14.4 5.2 -4.3 27 7.4 WSW 35 52 19 28 1018.0 1016.2 0.0
26/10:18am 13.8 4.6 -4.8 27 7.3 WSW 35 56 19 30 1017.8 1016.0 0.0
26/10:00am 13.6 4.2 -3.2 31 6.8 WSW 37 52 20 28 1017.9 1016.1 0.0
26/09:30am 12.8 3.4 -2.6 34 6.2 WSW 37 52 20 28 1018.0 1016.2 0.0
26/09:00am 12.1 3.2 -2.1 37 5.8 WSW 35 48 19 26 1018.2 1016.4 0.0
26/08:30am 10.9 1.7 -1.5 42 5.1 WSW 37 52 20 28 1018.0 1016.2 0.0
26/08:00am 10.3 1.8 -2.0 42 4.9 WSW 33 48 18 26 1017.8 1016.0 0.0
26/07:30am 9.5 0.6 -1.8 45 4.5 WSW 35 50 19 27 1017.3 1015.4 0.0
26/07:16am 9.2 0.9 -1.8 46 4.4 WSW 32 50 17 27 1017.2 1015.3 0.0
26/07:00am 8.6 0.3 -1.5 49 4.0 WSW 32 43 17 23 1016.9 1015.0 0.0
26/06:30am 7.5 -0.4 -1.7 52 3.6 WSW 30 37 16 20 1016.4 1014.6 0.0
26/06:00am 7.0 0.2 -1.9 53 3.4 WSW 24 35 13 19 1016.1 1014.2 0.0
26/05:30am 7.0 0.6 -1.9 53 3.4 W 22 33 12 18 1015.7 1013.8 0.0
26/05:00am 7.4 1.4 -1.8 52 3.6 WSW 20 30 11 16 1015.7 1013.8 0.0
26/04:30am 7.7 0.5 -1.8 51 3.7 WSW 26 35 14 19 1015.3 1013.4 0.0
26/04:00am 8.2 1.5 -1.3 51 3.8 W 24 30 13 16 1015.1 1013.3 0.0
26/03:30am 8.7 1.6 -0.9 51 3.9 WSW 26 33 14 18 1014.7 1012.8 0.0
26/03:00am 9.1 2.5 -0.2 52 3.8 WSW 24 35 13 19 1014.6 1012.7 0.0
26/02:30am 9.3 3.6 0.7 55 3.6 WSW 20 30 11 16 1014.7 1012.8 0.0
26/02:00am 9.8 4.0 2.2 59 3.3 WSW 22 32 12 17 1014.6 1012.7 0.0
26/01:30am 10.4 4.8 3.2 61 3.3 SW 22 30 12 16 1014.7 1012.8 0.0
26/01:00am 11.1 4.0 3.6 60 3.4 SW 30 39 16 21 1014.6 1012.7 0.0
26/12:38am 12.3 4.2 3.3 54 4.1 SW 35 54 19 29 1014.3 1012.4 0.0
26/12:30am 12.9 3.9 2.7 50 4.7 SW 39 54 21 29 1014.1 1012.2 0.0
26/12:22am 14.9 6.4 -2.1 31 7.1 WSW 33 57 18 31 1014.1 1012.2 0.0
26/12:16am 16.7 9.1 -5.1 22 8.7 W 26 57 14 31 1013.7 1011.8 0.0
26/12:00am 15.4 10.3 -5.0 24 8.1 WNW 13 17 7 9 1012.9 1011.0 0.0
 
Date/Time
EST
Temp
°C
App
Temp
°C
Dew
Point
°C
Rel
Hum
%
Delta-T
°C
Wind Press
QNH
hPa
Press
MSL
hPa
Rain since
9am
mm
Dir  Spd
km/h
Gust
km/h
Spd
kts
Gust
kts
25/11:30pm 15.8 10.3 -5.3 23 8.3 WNW 15 19 8 10 1013.1 1011.2 0.0
25/11:00pm 16.5 11.0 -5.3 22 8.7 WNW 15 22 8 12 1013.1 1011.2 0.0
25/10:30pm 17.4 11.5 -5.8 20 9.2 WNW 17 20 9 11 1012.9 1011.0 0.0
25/10:00pm 18.4 13.0 -4.3 21 9.4 NW 15 20 8 11 1012.9 1011.0 0.0
25/09:30pm 18.4 12.6 -4.3 21 9.4 NW 17 20 9 11 1012.9 1011.0 0.0
25/09:00pm 18.8 13.5 -4.0 21 9.5 NW 15 20 8 11 1012.7 1010.8 0.0
25/08:30pm 19.4 14.2 -2.8 22 9.6 NW 15 19 8 10 1012.4 1010.5 0.0
25/08:00pm 20.3 14.7 -2.7 21 10.0 WNW 17 20 9 11 1012.2 1010.3 0.0
25/07:30pm 20.6 16.0 -0.7 24 9.7 WNW 13 17 7 9 1011.6 1009.7 0.0
25/07:00pm 22.0 16.5 0.5 24 10.1 WNW 19 24 10 13 1011.3 1009.4 0.0
25/06:30pm 22.5 17.5 1.5 25 10.1 WNW 17 24 9 13 1010.8 1008.9 0.0
25/06:00pm 23.9 18.5 4.3 28 10.0 WNW 22 33 12 18 1010.5 1008.5 0.0
25/05:30pm 24.8 18.2 4.0 26 10.6 WNW 28 39 15 21 1010.3 1008.3 0.0
25/05:00pm 25.1 17.5 3.7 25 10.9 NW 33 46 18 25 1010.0 1008.1 0.0
25/04:38pm 25.8 18.2 3.1 23 11.5 NW 32 50 17 27 1009.7 1007.8 0.0
25/04:30pm 25.6 17.4 2.9 23 11.4 NW 35 50 19 27 1009.8 1007.9 0.0
25/04:00pm 26.0 18.5 4.5 25 11.2 NW 33 52 18 28 1009.9 1008.0 0.0
25/03:33pm 25.5 18.2 4.6 26 10.8 NW 32 50 17 27 1009.9 1008.0 0.0
25/03:30pm 26.4 19.3 5.4 26 11.1 NW 32 43 17 23 1010.0 1008.1 0.0
25/03:01pm 25.1 17.9 4.8 27 10.5 NW 32 54 17 29 1010.3 1008.3 0.0
25/03:00pm 25.4 18.2 5.1 27 10.6 NW 32 46 17 25 1010.5 1008.5 0.0
25/02:43pm 26.5 19.3 4.9 25 11.3 NW 32 50 17 27 1010.6 1008.6 0.0
25/02:30pm 26.7 19.0 3.2 22 12.0 NNW 33 48 18 26 1010.7 1008.8 0.0
25/02:08pm 26.5 19.1 4.9 25 11.3 NW 33 52 18 28 1011.0 1009.1 0.0
25/02:00pm 25.4 17.4 4.0 25 11.0 NW 35 52 19 28 1011.2 1009.3 0.0
25/01:51pm 25.0 18.1 4.7 27 10.5 NW 30 48 16 26 1011.3 1009.4 0.0
25/01:30pm 25.0 18.2 5.2 28 10.3 NW 30 41 16 22 1011.8 1009.9 0.0
25/01:00pm 26.1 19.2 4.6 25 11.2 NW 30 48 16 26 1012.3 1010.4 0.0
25/12:56pm 26.6 19.7 4.4 24 11.5 NW 30 48 16 26 1012.4 1010.5 0.0
25/12:30pm 25.6 18.6 4.1 25 11.1 NW 30 46 16 25 1013.0 1011.1 0.0
25/12:00pm 25.0 17.5 4.2 26 10.7 NNW 33 48 18 26 1013.8 1011.9 0.0
25/11:30am 24.7 17.4 4.5 27 10.4 NW 32 52 17 28 1014.4 1012.5 0.0
25/11:29am 24.8 18.0 5.1 28 10.3 NW 30 52 16 28 1014.2 1012.3 0.0
25/11:00am 24.0 18.6 8.0 36 8.7 NW 26 39 14 21 1014.9 1013.1 0.0
25/10:30am 23.3 17.8 7.4 36 8.6 NNW 26 39 14 21 1015.6 1013.7 0.0
25/10:00am 22.0 17.6 7.4 39 7.8 N 20 30 11 16 1016.1 1014.2 0.0
25/09:30am 21.5 17.4 8.7 44 7.0 NNW 20 28 11 15 1016.4 1014.6 0.0
25/09:00am 20.4 16.2 8.1 45 6.6 N 20 28 11 15 1016.6 1014.8 0.0
25/08:30am 19.4 16.1 8.1 48 6.0 N 15 20 8 11 1016.9 1015.0 0.0
25/08:00am 17.7 14.8 8.3 54 5.0 N 13 19 7 10 1017.1 1015.2 0.0
25/07:30am 16.9 14.4 8.3 57 4.5 NE 11 15 6 8 1016.9 1015.0 0.0

Other formats

Comma delimited format used in spreadsheet applications
http://www.bom.gov.au/fwo/IDQ60801/IDQ60801.95551.axf

JavaScript Object Notation format (JSON) in row-major order
http://www.bom.gov.au/fwo/IDQ60801/IDQ60801.95551.json

Data quality

Most of these data are generated automatically and are frequently updated. Quality checks on data are not normally performed. It is possible for incorrect values to appear. Refer to information at About Latest Weather Observations and please check the disclaimer before using these data.